sensor_id;sensor_type;location;lat;lon;timestamp;P1;durP1;ratioP1;P2;durP2;ratioP2
62479;SDS011;48526;48.846;2.322;2022-09-24T00:00:16;16.25;;;10.00;;
62479;SDS011;48526;48.846;2.322;2022-09-24T00:02:42;10.00;;;7.75;;
62479;SDS011;48526;48.846;2.322;2022-09-24T00:05:07;10.25;;;9.25;;
62479;SDS011;48526;48.846;2.322;2022-09-24T00:07:33;9.25;;;9.25;;
62479;SDS011;48526;48.846;2.322;2022-09-24T00:09:58;11.50;;;9.75;;
62479;SDS011;48526;48.846;2.322;2022-09-24T00:12:24;12.50;;;10.25;;
62479;SDS011;48526;48.846;2.322;2022-09-24T00:14:49;11.25;;;10.25;;
62479;SDS011;48526;48.846;2.322;2022-09-24T00:17:15;9.75;;;9.25;;
62479;SDS011;48526;48.846;2.322;2022-09-24T00:19:40;14.25;;;10.25;;
62479;SDS011;48526;48.846;2.322;2022-09-24T00:22:06;13.50;;;11.50;;
62479;SDS011;48526;48.846;2.322;2022-09-24T00:24:31;12.00;;;10.25;;
62479;SDS011;48526;48.846;2.322;2022-09-24T00:27:15;11.00;;;10.25;;
62479;SDS011;48526;48.846;2.322;2022-09-24T00:29:40;14.50;;;11.00;;
62479;SDS011;48526;48.846;2.322;2022-09-24T00:32:06;11.75;;;9.00;;
62479;SDS011;48526;48.846;2.322;2022-09-24T00:34:32;8.50;;;8.00;;
62479;SDS011;48526;48.846;2.322;2022-09-24T00:37:00;14.25;;;11.50;;
62479;SDS011;48526;48.846;2.322;2022-09-24T00:39:26;8.25;;;7.50;;
62479;SDS011;48526;48.846;2.322;2022-09-24T00:41:51;11.75;;;10.75;;
62479;SDS011;48526;48.846;2.322;2022-09-24T00:47:04;10.25;;;9.25;;
62479;SDS011;48526;48.846;2.322;2022-09-24T00:49:31;10.25;;;10.25;;
62479;SDS011;48526;48.846;2.322;2022-09-24T00:51:56;9.00;;;9.00;;
62479;SDS011;48526;48.846;2.322;2022-09-24T00:54:22;10.00;;;9.50;;
62479;SDS011;48526;48.846;2.322;2022-09-24T00:56:50;12.75;;;11.00;;
62479;SDS011;48526;48.846;2.322;2022-09-24T00:59:17;14.75;;;11.50;;
62479;SDS011;48526;48.846;2.322;2022-09-24T01:01:45;8.00;;;7.50;;
62479;SDS011;48526;48.846;2.322;2022-09-24T01:04:11;9.75;;;9.75;;
62479;SDS011;48526;48.846;2.322;2022-09-24T01:06:38;9.25;;;9.00;;
62479;SDS011;48526;48.846;2.322;2022-09-24T01:09:05;14.75;;;13.00;;
62479;SDS011;48526;48.846;2.322;2022-09-24T01:11:42;10.75;;;9.00;;
62479;SDS011;48526;48.846;2.322;2022-09-24T01:22:15;9.00;;;9.00;;
62479;SDS011;48526;48.846;2.322;2022-09-24T01:28:31;14.25;;;10.25;;
62479;SDS011;48526;48.846;2.322;2022-09-24T01:30:47;11.50;;;10.00;;
62479;SDS011;48526;48.846;2.322;2022-09-24T01:33:19;14.25;;;10.25;;
62479;SDS011;48526;48.846;2.322;2022-09-24T01:35:47;11.75;;;10.75;;
62479;SDS011;48526;48.846;2.322;2022-09-24T01:38:17;15.25;;;11.25;;
62479;SDS011;48526;48.846;2.322;2022-09-24T01:40:45;10.00;;;9.00;;
62479;SDS011;48526;48.846;2.322;2022-09-24T01:43:12;15.25;;;11.50;;
62479;SDS011;48526;48.846;2.322;2022-09-24T01:45:39;9.25;;;9.25;;
62479;SDS011;48526;48.846;2.322;2022-09-24T01:48:04;12.50;;;11.25;;
62479;SDS011;48526;48.846;2.322;2022-09-24T01:50:37;13.75;;;10.00;;
62479;SDS011;48526;48.846;2.322;2022-09-24T01:55:47;9.50;;;9.50;;
62479;SDS011;48526;48.846;2.322;2022-09-24T01:58:20;10.75;;;9.50;;
62479;SDS011;48526;48.846;2.322;2022-09-24T02:00:50;18.50;;;15.50;;
62479;SDS011;48526;48.846;2.322;2022-09-24T02:03:24;12.75;;;10.00;;
62479;SDS011;48526;48.846;2.322;2022-09-24T02:05:58;14.00;;;11.75;;
62479;SDS011;48526;48.846;2.322;2022-09-24T02:08:31;14.25;;;14.25;;
62479;SDS011;48526;48.846;2.322;2022-09-24T02:11:17;16.75;;;14.75;;
62479;SDS011;48526;48.846;2.322;2022-09-24T02:13:47;15.50;;;12.50;;
62479;SDS011;48526;48.846;2.322;2022-09-24T02:19:23;15.75;;;13.75;;
62479;SDS011;48526;48.846;2.322;2022-09-24T02:21:50;14.75;;;11.25;;
62479;SDS011;48526;48.846;2.322;2022-09-24T02:24:21;15.50;;;12.25;;
62479;SDS011;48526;48.846;2.322;2022-09-24T02:26:48;14.25;;;11.75;;
62479;SDS011;48526;48.846;2.322;2022-09-24T02:29:14;15.00;;;14.00;;
62479;SDS011;48526;48.846;2.322;2022-09-24T02:31:44;18.00;;;15.00;;
62479;SDS011;48526;48.846;2.322;2022-09-24T02:34:15;15.50;;;11.25;;
62479;SDS011;48526;48.846;2.322;2022-09-24T02:36:51;15.75;;;13.00;;
62479;SDS011;48526;48.846;2.322;2022-09-24T02:39:19;16.25;;;13.00;;
62479;SDS011;48526;48.846;2.322;2022-09-24T02:41:45;14.75;;;13.50;;
62479;SDS011;48526;48.846;2.322;2022-09-24T02:44:12;12.75;;;10.50;;
62479;SDS011;48526;48.846;2.322;2022-09-24T02:46:38;17.50;;;12.75;;
62479;SDS011;48526;48.846;2.322;2022-09-24T02:49:05;13.75;;;11.25;;
62479;SDS011;48526;48.846;2.322;2022-09-24T02:51:31;11.00;;;8.75;;
62479;SDS011;48526;48.846;2.322;2022-09-24T02:53:56;12.25;;;10.50;;
62479;SDS011;48526;48.846;2.322;2022-09-24T02:56:22;14.00;;;12.50;;
62479;SDS011;48526;48.846;2.322;2022-09-24T02:58:47;15.00;;;13.75;;
62479;SDS011;48526;48.846;2.322;2022-09-24T03:01:13;12.25;;;11.00;;
62479;SDS011;48526;48.846;2.322;2022-09-24T03:03:38;13.50;;;10.25;;
62479;SDS011;48526;48.846;2.322;2022-09-24T03:06:04;13.50;;;11.50;;
62479;SDS011;48526;48.846;2.322;2022-09-24T03:08:30;14.75;;;11.00;;
62479;SDS011;48526;48.846;2.322;2022-09-24T03:10:57;10.50;;;8.00;;
62479;SDS011;48526;48.846;2.322;2022-09-24T03:13:23;14.00;;;8.25;;
62479;SDS011;48526;48.846;2.322;2022-09-24T03:15:48;12.50;;;11.75;;
62479;SDS011;48526;48.846;2.322;2022-09-24T03:18:14;15.25;;;14.25;;
62479;SDS011;48526;48.846;2.322;2022-09-24T03:20:39;15.50;;;12.75;;
62479;SDS011;48526;48.846;2.322;2022-09-24T03:23:04;11.00;;;10.00;;
62479;SDS011;48526;48.846;2.322;2022-09-24T03:25:30;13.00;;;11.25;;
62479;SDS011;48526;48.846;2.322;2022-09-24T03:27:55;11.00;;;9.50;;
62479;SDS011;48526;48.846;2.322;2022-09-24T03:30:21;16.25;;;13.00;;
62479;SDS011;48526;48.846;2.322;2022-09-24T03:33:05;13.00;;;13.00;;
62479;SDS011;48526;48.846;2.322;2022-09-24T03:35:30;8.25;;;8.25;;
62479;SDS011;48526;48.846;2.322;2022-09-24T03:37:56;13.50;;;11.75;;
62479;SDS011;48526;48.846;2.322;2022-09-24T03:40:21;13.75;;;10.50;;
62479;SDS011;48526;48.846;2.322;2022-09-24T03:42:46;14.50;;;10.25;;
62479;SDS011;48526;48.846;2.322;2022-09-24T03:45:12;13.25;;;9.75;;
62479;SDS011;48526;48.846;2.322;2022-09-24T03:47:38;10.75;;;10.25;;
62479;SDS011;48526;48.846;2.322;2022-09-24T03:50:06;15.00;;;11.75;;
62479;SDS011;48526;48.846;2.322;2022-09-24T03:52:33;10.25;;;9.00;;
62479;SDS011;48526;48.846;2.322;2022-09-24T03:54:59;13.50;;;10.50;;
62479;SDS011;48526;48.846;2.322;2022-09-24T03:57:24;11.50;;;10.50;;
62479;SDS011;48526;48.846;2.322;2022-09-24T03:59:49;11.75;;;10.50;;
62479;SDS011;48526;48.846;2.322;2022-09-24T04:02:17;10.50;;;9.75;;
62479;SDS011;48526;48.846;2.322;2022-09-24T04:04:43;12.25;;;10.25;;
62479;SDS011;48526;48.846;2.322;2022-09-24T04:07:09;13.75;;;8.00;;
62479;SDS011;48526;48.846;2.322;2022-09-24T04:09:34;14.50;;;11.75;;
62479;SDS011;48526;48.846;2.322;2022-09-24T04:12:00;12.75;;;9.50;;
62479;SDS011;48526;48.846;2.322;2022-09-24T04:14:26;12.00;;;9.25;;
62479;SDS011;48526;48.846;2.322;2022-09-24T04:16:51;10.75;;;10.75;;
62479;SDS011;48526;48.846;2.322;2022-09-24T04:19:17;17.25;;;10.25;;
62479;SDS011;48526;48.846;2.322;2022-09-24T04:21:43;11.00;;;10.75;;
62479;SDS011;48526;48.846;2.322;2022-09-24T04:24:09;9.25;;;9.25;;
62479;SDS011;48526;48.846;2.322;2022-09-24T04:26:34;11.00;;;10.00;;
62479;SDS011;48526;48.846;2.322;2022-09-24T04:29:00;13.50;;;9.50;;
62479;SDS011;48526;48.846;2.322;2022-09-24T04:31:25;10.00;;;9.00;;
62479;SDS011;48526;48.846;2.322;2022-09-24T04:33:51;12.25;;;8.50;;
62479;SDS011;48526;48.846;2.322;2022-09-24T04:36:17;11.75;;;9.75;;
62479;SDS011;48526;48.846;2.322;2022-09-24T04:38:44;11.50;;;11.50;;
62479;SDS011;48526;48.846;2.322;2022-09-24T04:41:11;19.75;;;11.00;;
62479;SDS011;48526;48.846;2.322;2022-09-24T04:43:37;12.00;;;12.00;;
62479;SDS011;48526;48.846;2.322;2022-09-24T04:46:02;14.25;;;11.50;;
62479;SDS011;48526;48.846;2.322;2022-09-24T04:48:28;10.75;;;9.25;;
62479;SDS011;48526;48.846;2.322;2022-09-24T04:50:54;14.75;;;10.50;;
62479;SDS011;48526;48.846;2.322;2022-09-24T04:53:19;13.50;;;10.75;;
62479;SDS011;48526;48.846;2.322;2022-09-24T04:55:45;12.50;;;11.25;;
62479;SDS011;48526;48.846;2.322;2022-09-24T04:58:11;13.00;;;8.50;;
62479;SDS011;48526;48.846;2.322;2022-09-24T05:00:38;9.25;;;9.25;;
62479;SDS011;48526;48.846;2.322;2022-09-24T05:03:03;13.50;;;12.00;;
62479;SDS011;48526;48.846;2.322;2022-09-24T05:05:29;17.50;;;13.75;;
62479;SDS011;48526;48.846;2.322;2022-09-24T05:07:56;9.25;;;9.25;;
62479;SDS011;48526;48.846;2.322;2022-09-24T05:10:22;12.00;;;8.00;;
62479;SDS011;48526;48.846;2.322;2022-09-24T05:12:48;13.75;;;11.00;;
62479;SDS011;48526;48.846;2.322;2022-09-24T05:15:15;12.25;;;11.50;;
62479;SDS011;48526;48.846;2.322;2022-09-24T05:17:42;11.50;;;10.00;;
62479;SDS011;48526;48.846;2.322;2022-09-24T05:20:07;12.75;;;10.50;;
62479;SDS011;48526;48.846;2.322;2022-09-24T05:22:35;13.00;;;11.00;;
62479;SDS011;48526;48.846;2.322;2022-09-24T05:25:05;12.25;;;10.00;;
62479;SDS011;48526;48.846;2.322;2022-09-24T05:27:30;18.50;;;13.50;;
62479;SDS011;48526;48.846;2.322;2022-09-24T05:29:56;16.50;;;13.75;;
62479;SDS011;48526;48.846;2.322;2022-09-24T05:32:21;15.75;;;14.00;;
62479;SDS011;48526;48.846;2.322;2022-09-24T05:34:46;21.75;;;14.75;;
62479;SDS011;48526;48.846;2.322;2022-09-24T05:37:13;14.50;;;13.25;;
62479;SDS011;48526;48.846;2.322;2022-09-24T05:39:38;14.25;;;12.50;;
62479;SDS011;48526;48.846;2.322;2022-09-24T05:42:04;19.00;;;11.75;;
62479;SDS011;48526;48.846;2.322;2022-09-24T05:44:30;17.75;;;14.00;;
62479;SDS011;48526;48.846;2.322;2022-09-24T05:46:56;17.50;;;15.00;;
62479;SDS011;48526;48.846;2.322;2022-09-24T05:49:22;14.50;;;13.25;;
62479;SDS011;48526;48.846;2.322;2022-09-24T05:51:49;11.25;;;9.25;;
62479;SDS011;48526;48.846;2.322;2022-09-24T05:54:18;12.00;;;9.00;;
62479;SDS011;48526;48.846;2.322;2022-09-24T05:56:43;10.00;;;9.50;;
62479;SDS011;48526;48.846;2.322;2022-09-24T05:59:09;10.00;;;10.00;;
62479;SDS011;48526;48.846;2.322;2022-09-24T06:01:35;13.75;;;10.75;;
62479;SDS011;48526;48.846;2.322;2022-09-24T06:04:00;13.25;;;11.00;;
62479;SDS011;48526;48.846;2.322;2022-09-24T06:06:26;11.50;;;9.75;;
62479;SDS011;48526;48.846;2.322;2022-09-24T06:08:52;9.00;;;9.00;;
62479;SDS011;48526;48.846;2.322;2022-09-24T06:11:17;9.50;;;8.25;;
62479;SDS011;48526;48.846;2.322;2022-09-24T06:13:43;12.00;;;9.50;;
62479;SDS011;48526;48.846;2.322;2022-09-24T06:16:09;12.75;;;11.25;;
62479;SDS011;48526;48.846;2.322;2022-09-24T06:18:37;14.75;;;11.00;;
62479;SDS011;48526;48.846;2.322;2022-09-24T06:21:04;14.50;;;12.25;;
62479;SDS011;48526;48.846;2.322;2022-09-24T06:23:34;13.50;;;11.50;;
62479;SDS011;48526;48.846;2.322;2022-09-24T06:26:00;17.75;;;12.75;;
62479;SDS011;48526;48.846;2.322;2022-09-24T06:28:26;14.50;;;10.75;;
62479;SDS011;48526;48.846;2.322;2022-09-24T06:30:52;14.50;;;14.00;;
62479;SDS011;48526;48.846;2.322;2022-09-24T06:33:18;11.50;;;8.25;;
62479;SDS011;48526;48.846;2.322;2022-09-24T06:35:44;12.25;;;11.75;;
62479;SDS011;48526;48.846;2.322;2022-09-24T06:38:12;15.00;;;12.25;;
62479;SDS011;48526;48.846;2.322;2022-09-24T06:40:43;15.50;;;14.50;;
62479;SDS011;48526;48.846;2.322;2022-09-24T06:43:11;10.50;;;9.00;;
62479;SDS011;48526;48.846;2.322;2022-09-24T06:45:37;12.00;;;10.00;;
62479;SDS011;48526;48.846;2.322;2022-09-24T06:48:03;12.00;;;8.25;;
62479;SDS011;48526;48.846;2.322;2022-09-24T06:50:30;9.00;;;9.00;;
62479;SDS011;48526;48.846;2.322;2022-09-24T06:52:58;12.50;;;9.75;;
62479;SDS011;48526;48.846;2.322;2022-09-24T06:55:24;9.00;;;8.00;;
62479;SDS011;48526;48.846;2.322;2022-09-24T06:57:50;12.50;;;12.50;;
62479;SDS011;48526;48.846;2.322;2022-09-24T07:00:28;13.50;;;9.50;;
62479;SDS011;48526;48.846;2.322;2022-09-24T07:02:54;11.25;;;7.50;;
62479;SDS011;48526;48.846;2.322;2022-09-24T07:05:19;8.25;;;7.50;;
62479;SDS011;48526;48.846;2.322;2022-09-24T07:07:46;9.00;;;9.00;;
62479;SDS011;48526;48.846;2.322;2022-09-24T07:10:12;8.00;;;7.75;;
62479;SDS011;48526;48.846;2.322;2022-09-24T07:12:39;9.25;;;9.00;;
62479;SDS011;48526;48.846;2.322;2022-09-24T07:15:05;9.25;;;6.50;;
62479;SDS011;48526;48.846;2.322;2022-09-24T07:17:31;10.00;;;8.00;;
62479;SDS011;48526;48.846;2.322;2022-09-24T07:19:57;9.00;;;8.75;;
62479;SDS011;48526;48.846;2.322;2022-09-24T07:22:22;12.25;;;10.25;;
62479;SDS011;48526;48.846;2.322;2022-09-24T07:24:48;13.00;;;10.00;;
62479;SDS011;48526;48.846;2.322;2022-09-24T07:27:14;9.25;;;9.25;;
62479;SDS011;48526;48.846;2.322;2022-09-24T07:29:40;8.75;;;8.75;;
62479;SDS011;48526;48.846;2.322;2022-09-24T07:32:05;8.75;;;8.50;;
62479;SDS011;48526;48.846;2.322;2022-09-24T07:34:31;10.75;;;8.00;;
62479;SDS011;48526;48.846;2.322;2022-09-24T07:36:57;10.25;;;9.00;;
62479;SDS011;48526;48.846;2.322;2022-09-24T07:39:23;8.75;;;7.50;;
62479;SDS011;48526;48.846;2.322;2022-09-24T07:41:49;15.00;;;9.00;;
62479;SDS011;48526;48.846;2.322;2022-09-24T07:44:19;8.50;;;8.50;;
62479;SDS011;48526;48.846;2.322;2022-09-24T07:46:47;10.50;;;8.00;;
62479;SDS011;48526;48.846;2.322;2022-09-24T07:49:15;8.50;;;7.75;;
62479;SDS011;48526;48.846;2.322;2022-09-24T07:51:42;7.25;;;6.75;;
62479;SDS011;48526;48.846;2.322;2022-09-24T07:54:09;8.50;;;8.50;;
62479;SDS011;48526;48.846;2.322;2022-09-24T07:56:35;9.00;;;8.75;;
62479;SDS011;48526;48.846;2.322;2022-09-24T07:59:01;11.25;;;10.00;;
62479;SDS011;48526;48.846;2.322;2022-09-24T08:01:26;14.50;;;11.50;;
62479;SDS011;48526;48.846;2.322;2022-09-24T08:03:52;12.00;;;9.25;;
62479;SDS011;48526;48.846;2.322;2022-09-24T08:06:19;6.75;;;6.75;;
62479;SDS011;48526;48.846;2.322;2022-09-24T08:08:49;7.50;;;7.50;;
62479;SDS011;48526;48.846;2.322;2022-09-24T08:11:17;10.25;;;7.75;;
62479;SDS011;48526;48.846;2.322;2022-09-24T08:13:46;12.25;;;9.75;;
62479;SDS011;48526;48.846;2.322;2022-09-24T08:16:16;9.25;;;8.00;;
62479;SDS011;48526;48.846;2.322;2022-09-24T08:18:42;13.00;;;8.25;;
62479;SDS011;48526;48.846;2.322;2022-09-24T08:21:09;12.00;;;8.50;;
62479;SDS011;48526;48.846;2.322;2022-09-24T08:23:36;11.75;;;8.00;;
62479;SDS011;48526;48.846;2.322;2022-09-24T08:26:02;9.50;;;8.00;;
62479;SDS011;48526;48.846;2.322;2022-09-24T08:28:29;12.00;;;9.25;;
62479;SDS011;48526;48.846;2.322;2022-09-24T08:30:58;9.75;;;8.25;;
62479;SDS011;48526;48.846;2.322;2022-09-24T08:33:25;10.50;;;8.50;;
62479;SDS011;48526;48.846;2.322;2022-09-24T08:35:59;9.25;;;8.00;;
62479;SDS011;48526;48.846;2.322;2022-09-24T08:38:27;10.00;;;7.75;;
62479;SDS011;48526;48.846;2.322;2022-09-24T08:49:31;8.75;;;8.75;;
62479;SDS011;48526;48.846;2.322;2022-09-24T08:55:09;9.00;;;9.00;;
62479;SDS011;48526;48.846;2.322;2022-09-24T08:57:43;12.50;;;9.50;;
62479;SDS011;48526;48.846;2.322;2022-09-24T09:00:15;9.50;;;8.50;;
62479;SDS011;48526;48.846;2.322;2022-09-24T09:08:12;8.75;;;8.00;;
62479;SDS011;48526;48.846;2.322;2022-09-24T09:10:47;12.50;;;9.75;;
62479;SDS011;48526;48.846;2.322;2022-09-24T09:13:19;8.00;;;7.75;;
62479;SDS011;48526;48.846;2.322;2022-09-24T09:19:04;9.75;;;8.75;;
62479;SDS011;48526;48.846;2.322;2022-09-24T09:21:38;13.25;;;9.75;;
62479;SDS011;48526;48.846;2.322;2022-09-24T09:24:13;10.75;;;9.00;;
62479;SDS011;48526;48.846;2.322;2022-09-24T09:26:42;14.75;;;11.50;;
62479;SDS011;48526;48.846;2.322;2022-09-24T09:29:11;9.25;;;8.75;;
62479;SDS011;48526;48.846;2.322;2022-09-24T09:31:47;10.25;;;9.50;;
62479;SDS011;48526;48.846;2.322;2022-09-24T09:42:40;8.00;;;8.00;;
62479;SDS011;48526;48.846;2.322;2022-09-24T09:48:18;11.75;;;10.50;;
62479;SDS011;48526;48.846;2.322;2022-09-24T09:50:50;13.25;;;11.75;;
62479;SDS011;48526;48.846;2.322;2022-09-24T09:53:20;13.75;;;13.75;;
62479;SDS011;48526;48.846;2.322;2022-09-24T09:55:58;19.50;;;14.50;;
62479;SDS011;48526;48.846;2.322;2022-09-24T09:58:35;14.00;;;12.50;;
62479;SDS011;48526;48.846;2.322;2022-09-24T10:01:06;14.50;;;13.75;;
62479;SDS011;48526;48.846;2.322;2022-09-24T10:06:25;10.25;;;8.25;;
62479;SDS011;48526;48.846;2.322;2022-09-24T10:08:53;9.75;;;9.00;;
62479;SDS011;48526;48.846;2.322;2022-09-24T10:11:30;10.00;;;9.75;;
62479;SDS011;48526;48.846;2.322;2022-09-24T10:14:03;10.25;;;10.25;;
62479;SDS011;48526;48.846;2.322;2022-09-24T10:16:29;23.50;;;20.25;;
62479;SDS011;48526;48.846;2.322;2022-09-24T10:18:54;18.25;;;14.75;;
62479;SDS011;48526;48.846;2.322;2022-09-24T10:21:33;15.50;;;14.50;;
62479;SDS011;48526;48.846;2.322;2022-09-24T10:24:05;20.50;;;13.25;;
62479;SDS011;48526;48.846;2.322;2022-09-24T10:26:41;24.00;;;18.25;;
62479;SDS011;48526;48.846;2.322;2022-09-24T10:29:13;15.75;;;15.25;;
62479;SDS011;48526;48.846;2.322;2022-09-24T10:32:00;14.25;;;13.00;;
62479;SDS011;48526;48.846;2.322;2022-09-24T10:34:29;17.25;;;15.00;;
62479;SDS011;48526;48.846;2.322;2022-09-24T10:36:59;21.50;;;17.75;;
62479;SDS011;48526;48.846;2.322;2022-09-24T10:39:26;15.50;;;13.75;;
62479;SDS011;48526;48.846;2.322;2022-09-24T10:41:53;18.00;;;14.75;;
62479;SDS011;48526;48.846;2.322;2022-09-24T10:44:21;21.50;;;16.25;;
62479;SDS011;48526;48.846;2.322;2022-09-24T10:50:05;22.75;;;17.75;;
62479;SDS011;48526;48.846;2.322;2022-09-24T10:55:24;17.00;;;15.50;;
62479;SDS011;48526;48.846;2.322;2022-09-24T10:58:16;22.50;;;16.00;;
62479;SDS011;48526;48.846;2.322;2022-09-24T11:09:31;17.25;;;16.00;;
62479;SDS011;48526;48.846;2.322;2022-09-24T11:15:27;23.50;;;19.00;;
62479;SDS011;48526;48.846;2.322;2022-09-24T11:25:31;17.00;;;15.00;;
62479;SDS011;48526;48.846;2.322;2022-09-24T11:57:19;18.75;;;18.00;;
62479;SDS011;48526;48.846;2.322;2022-09-24T12:00:04;18.75;;;16.00;;
62479;SDS011;48526;48.846;2.322;2022-09-24T12:15:51;21.25;;;16.75;;
62479;SDS011;48526;48.846;2.322;2022-09-24T12:19:04;19.50;;;18.00;;
62479;SDS011;48526;48.846;2.322;2022-09-24T12:29:43;20.75;;;18.50;;
62479;SDS011;48526;48.846;2.322;2022-09-24T12:39:27;20.50;;;17.75;;
62479;SDS011;48526;48.846;2.322;2022-09-24T12:42:21;16.25;;;13.50;;
62479;SDS011;48526;48.846;2.322;2022-09-24T12:45:31;18.50;;;18.50;;
62479;SDS011;48526;48.846;2.322;2022-09-24T12:48:00;16.25;;;16.25;;
62479;SDS011;48526;48.846;2.322;2022-09-24T12:50:27;17.50;;;17.00;;
62479;SDS011;48526;48.846;2.322;2022-09-24T12:52:54;16.50;;;15.50;;
62479;SDS011;48526;48.846;2.322;2022-09-24T12:55:21;21.25;;;19.00;;
62479;SDS011;48526;48.846;2.322;2022-09-24T12:58:04;21.25;;;17.25;;
62479;SDS011;48526;48.846;2.322;2022-09-24T13:01:03;19.25;;;16.25;;
62479;SDS011;48526;48.846;2.322;2022-09-24T13:03:39;15.75;;;15.75;;
62479;SDS011;48526;48.846;2.322;2022-09-24T13:09:02;16.75;;;15.25;;
62479;SDS011;48526;48.846;2.322;2022-09-24T13:11:46;20.50;;;19.00;;
62479;SDS011;48526;48.846;2.322;2022-09-24T13:16:45;20.75;;;19.50;;
62479;SDS011;48526;48.846;2.322;2022-09-24T13:19:28;19.25;;;17.00;;
62479;SDS011;48526;48.846;2.322;2022-09-24T13:21:58;23.25;;;17.50;;
62479;SDS011;48526;48.846;2.322;2022-09-24T13:24:45;19.50;;;16.75;;
62479;SDS011;48526;48.846;2.322;2022-09-24T13:27:19;18.50;;;17.75;;
62479;SDS011;48526;48.846;2.322;2022-09-24T13:35:34;17.75;;;15.75;;
62479;SDS011;48526;48.846;2.322;2022-09-24T13:38:27;17.25;;;16.25;;
62479;SDS011;48526;48.846;2.322;2022-09-24T13:41:15;18.50;;;15.00;;
62479;SDS011;48526;48.846;2.322;2022-09-24T13:43:51;19.25;;;18.00;;
62479;SDS011;48526;48.846;2.322;2022-09-24T13:46:23;20.75;;;17.25;;
62479;SDS011;48526;48.846;2.322;2022-09-24T13:49:15;16.00;;;15.00;;
62479;SDS011;48526;48.846;2.322;2022-09-24T13:51:43;19.00;;;15.50;;
62479;SDS011;48526;48.846;2.322;2022-09-24T13:54:22;16.00;;;15.25;;
62479;SDS011;48526;48.846;2.322;2022-09-24T13:56:56;17.00;;;16.00;;
62479;SDS011;48526;48.846;2.322;2022-09-24T13:59:23;17.00;;;16.75;;
62479;SDS011;48526;48.846;2.322;2022-09-24T14:01:50;19.25;;;15.00;;
62479;SDS011;48526;48.846;2.322;2022-09-24T14:04:20;17.75;;;16.00;;
62479;SDS011;48526;48.846;2.322;2022-09-24T14:06:48;23.50;;;20.50;;
62479;SDS011;48526;48.846;2.322;2022-09-24T14:09:20;18.00;;;17.75;;
62479;SDS011;48526;48.846;2.322;2022-09-24T14:11:49;23.50;;;20.75;;
62479;SDS011;48526;48.846;2.322;2022-09-24T14:14:17;23.00;;;21.25;;
62479;SDS011;48526;48.846;2.322;2022-09-24T14:16:49;20.75;;;18.50;;
62479;SDS011;48526;48.846;2.322;2022-09-24T14:19:15;29.50;;;25.00;;
62479;SDS011;48526;48.846;2.322;2022-09-24T14:21:45;16.25;;;15.75;;
62479;SDS011;48526;48.846;2.322;2022-09-24T14:24:26;16.75;;;15.50;;
62479;SDS011;48526;48.846;2.322;2022-09-24T14:27:02;17.00;;;16.50;;
62479;SDS011;48526;48.846;2.322;2022-09-24T14:29:38;16.00;;;13.75;;
62479;SDS011;48526;48.846;2.322;2022-09-24T14:32:07;22.25;;;16.50;;
62479;SDS011;48526;48.846;2.322;2022-09-24T14:38:16;12.50;;;9.75;;
62479;SDS011;48526;48.846;2.322;2022-09-24T14:43:54;17.00;;;15.00;;
62479;SDS011;48526;48.846;2.322;2022-09-24T14:47:01;16.50;;;12.50;;
62479;SDS011;48526;48.846;2.322;2022-09-24T14:49:43;12.75;;;12.25;;
62479;SDS011;48526;48.846;2.322;2022-09-24T14:55:11;17.25;;;15.00;;
62479;SDS011;48526;48.846;2.322;2022-09-24T14:57:46;15.25;;;15.25;;
62479;SDS011;48526;48.846;2.322;2022-09-24T15:02:59;15.00;;;13.00;;
62479;SDS011;48526;48.846;2.322;2022-09-24T15:05:31;15.75;;;14.50;;
62479;SDS011;48526;48.846;2.322;2022-09-24T15:13:41;15.75;;;13.75;;
62479;SDS011;48526;48.846;2.322;2022-09-24T15:16:20;13.25;;;12.25;;
62479;SDS011;48526;48.846;2.322;2022-09-24T15:21:32;13.75;;;12.00;;
62479;SDS011;48526;48.846;2.322;2022-09-24T15:23:59;12.00;;;12.00;;
62479;SDS011;48526;48.846;2.322;2022-09-24T15:26:28;17.50;;;13.00;;
62479;SDS011;48526;48.846;2.322;2022-09-24T15:28:58;20.50;;;15.00;;
62479;SDS011;48526;48.846;2.322;2022-09-24T15:31:27;21.50;;;16.75;;
62479;SDS011;48526;48.846;2.322;2022-09-24T15:33:53;22.50;;;21.25;;
62479;SDS011;48526;48.846;2.322;2022-09-24T15:36:19;18.75;;;13.50;;
62479;SDS011;48526;48.846;2.322;2022-09-24T15:38:46;19.75;;;14.00;;
62479;SDS011;48526;48.846;2.322;2022-09-24T15:41:12;15.75;;;12.25;;
62479;SDS011;48526;48.846;2.322;2022-09-24T15:43:37;18.00;;;15.25;;
62479;SDS011;48526;48.846;2.322;2022-09-24T15:46:03;16.00;;;15.25;;
62479;SDS011;48526;48.846;2.322;2022-09-24T15:48:28;16.50;;;13.50;;
62479;SDS011;48526;48.846;2.322;2022-09-24T15:50:55;16.00;;;14.50;;
62479;SDS011;48526;48.846;2.322;2022-09-24T15:53:21;20.00;;;14.75;;
62479;SDS011;48526;48.846;2.322;2022-09-24T15:55:51;15.75;;;13.00;;
62479;SDS011;48526;48.846;2.322;2022-09-24T15:58:18;17.75;;;14.50;;
62479;SDS011;48526;48.846;2.322;2022-09-24T16:00:43;15.50;;;13.00;;
62479;SDS011;48526;48.846;2.322;2022-09-24T16:03:12;18.25;;;16.25;;
62479;SDS011;48526;48.846;2.322;2022-09-24T16:05:41;12.50;;;12.25;;
62479;SDS011;48526;48.846;2.322;2022-09-24T16:08:07;15.50;;;15.50;;
62479;SDS011;48526;48.846;2.322;2022-09-24T16:10:32;13.75;;;13.00;;
62479;SDS011;48526;48.846;2.322;2022-09-24T16:12:57;14.00;;;14.00;;
62479;SDS011;48526;48.846;2.322;2022-09-24T16:15:23;18.25;;;14.50;;
62479;SDS011;48526;48.846;2.322;2022-09-24T16:17:48;18.50;;;13.25;;
62479;SDS011;48526;48.846;2.322;2022-09-24T16:20:14;13.75;;;12.25;;
62479;SDS011;48526;48.846;2.322;2022-09-24T16:22:40;16.00;;;14.75;;
62479;SDS011;48526;48.846;2.322;2022-09-24T16:25:05;17.75;;;15.25;;
62479;SDS011;48526;48.846;2.322;2022-09-24T16:27:31;17.00;;;13.75;;
62479;SDS011;48526;48.846;2.322;2022-09-24T16:29:59;15.75;;;15.75;;
62479;SDS011;48526;48.846;2.322;2022-09-24T16:32:25;20.75;;;17.00;;
62479;SDS011;48526;48.846;2.322;2022-09-24T16:34:51;16.00;;;14.25;;
62479;SDS011;48526;48.846;2.322;2022-09-24T16:37:18;20.25;;;17.00;;
62479;SDS011;48526;48.846;2.322;2022-09-24T16:39:46;16.25;;;15.50;;
62479;SDS011;48526;48.846;2.322;2022-09-24T16:42:12;15.75;;;13.50;;
62479;SDS011;48526;48.846;2.322;2022-09-24T16:44:37;12.75;;;12.75;;
62479;SDS011;48526;48.846;2.322;2022-09-24T16:47:02;14.75;;;13.50;;
62479;SDS011;48526;48.846;2.322;2022-09-24T16:49:28;19.75;;;15.50;;
62479;SDS011;48526;48.846;2.322;2022-09-24T16:51:53;20.00;;;18.25;;
62479;SDS011;48526;48.846;2.322;2022-09-24T16:54:19;18.75;;;17.00;;
62479;SDS011;48526;48.846;2.322;2022-09-24T16:56:47;18.00;;;15.00;;
62479;SDS011;48526;48.846;2.322;2022-09-24T16:59:14;19.50;;;14.25;;
62479;SDS011;48526;48.846;2.322;2022-09-24T17:01:40;15.00;;;12.50;;
62479;SDS011;48526;48.846;2.322;2022-09-24T17:04:09;21.00;;;18.50;;
62479;SDS011;48526;48.846;2.322;2022-09-24T17:06:39;19.00;;;15.50;;
62479;SDS011;48526;48.846;2.322;2022-09-24T17:09:05;18.25;;;16.50;;
62479;SDS011;48526;48.846;2.322;2022-09-24T17:11:49;15.25;;;13.50;;
62479;SDS011;48526;48.846;2.322;2022-09-24T17:14:16;13.00;;;12.50;;
62479;SDS011;48526;48.846;2.322;2022-09-24T17:16:42;16.50;;;13.50;;
62479;SDS011;48526;48.846;2.322;2022-09-24T17:19:08;18.50;;;16.50;;
62479;SDS011;48526;48.846;2.322;2022-09-24T17:21:35;11.50;;;11.00;;
62479;SDS011;48526;48.846;2.322;2022-09-24T17:24:03;11.00;;;9.50;;
62479;SDS011;48526;48.846;2.322;2022-09-24T17:26:29;14.50;;;11.00;;
62479;SDS011;48526;48.846;2.322;2022-09-24T17:28:55;13.00;;;12.00;;